Time;durP1;ratioP1;P1;durP2;ratioP2;P2;SDS_P1;SDS_P2;PMS_P1;PMS_P2;Temp;Humidity;BMP_temperature;BMP_pressure;BME280_temperature;BME280_humidity;BME280_pressure;Samples;Min_cycle;Max_cycle;Signal;HPM_P1;HPM_P2
2022/11/28 00:01:55;;;;;;;13.73;5.35;;;;;;;7.74;51.78;101409.66;7392575;19;19995;-59
2022/11/28 00:04:21;;;;;;;11.85;5.47;;;;;;;7.68;51.96;101411.69;7391520;19;20005;-60
2022/11/28 00:06:50;;;;;;;12.90;5.45;;;;;;;7.64;51.91;101412.59;7391646;19;20019;-58
2022/11/28 00:09:18;;;;;;;13.15;6.00;;;;;;;7.65;51.86;101401.44;7387627;19;19998;-60
2022/11/28 00:11:51;;;;;;;11.18;5.10;;;;;;;7.58;51.75;101395.63;7394430;19;20014;-58
2022/11/28 00:14:18;;;;;;;9.07;4.80;;;;;;;7.61;51.88;101403.13;7395550;19;19990;-58
2022/11/28 00:16:44;;;;;;;11.20;5.68;;;;;;;7.52;51.91;101391.41;7390251;19;20522;-58
2022/11/28 00:19:11;;;;;;;11.85;5.32;;;;;;;7.60;52.01;101398.84;7390890;19;20390;-59
2022/11/28 00:21:37;;;;;;;11.80;5.25;;;;;;;7.66;52.01;101385.91;7393638;19;20002;-59
2022/11/28 00:24:03;;;;;;;11.95;5.13;;;;;;;7.62;52.00;101385.75;7391237;19;20350;-59
2022/11/28 00:26:31;;;;;;;13.35;4.85;;;;;;;7.57;52.02;101385.84;7391612;19;20002;-58
2022/11/28 00:28:58;;;;;;;12.65;5.38;;;;;;;7.54;52.05;101372.88;7392679;19;20008;-60
2022/11/28 00:31:31;;;;;;;11.45;5.35;;;;;;;7.61;51.84;101367.81;7393206;19;20308;-58
2022/11/28 00:33:57;;;;;;;10.90;4.80;;;;;;;7.64;51.91;101369.94;7392388;19;20006;-58
2022/11/28 00:36:23;;;;;;;11.77;4.88;;;;;;;7.55;52.06;101374.50;7391743;19;20116;-58
2022/11/28 00:38:50;;;;;;;11.90;4.90;;;;;;;7.50;52.10;101378.13;7389617;19;20001;-58
2022/11/28 00:41:24;;;;;;;10.40;5.47;;;;;;;7.49;51.94;101384.66;7388005;19;20468;-58
2022/11/28 00:43:50;;;;;;;;;;;;;;;7.30;52.54;101373.94;7390267;19;20006;-57
2022/11/28 00:46:17;;;;;;;13.90;5.97;;;;;;;7.47;52.11;101361.63;7392084;19;19931;-57
2022/11/28 00:48:43;;;;;;;12.95;5.50;;;;;;;7.52;51.92;101364.25;7389741;19;20326;-57
2022/11/28 00:51:12;;;;;;;13.40;5.20;;;;;;;7.49;51.79;101348.56;7388519;19;20307;-57
2022/11/28 00:53:40;;;;;;;10.50;5.40;;;;;;;7.52;51.75;101342.50;7391295;19;19999;-58
2022/11/28 00:56:07;;;;;;;11.52;4.90;;;;;;;7.51;51.60;101336.28;7389398;19;19998;-58
2022/11/28 00:58:36;;;;;;;12.82;5.38;;;;;;;7.49;51.52;101343.13;7392900;19;20109;-58
2022/11/28 01:01:16;;;;;;;10.60;5.18;;;;;;;7.44;51.27;101333.16;7389761;19;20003;-57
2022/11/28 01:03:43;;;;;;;10.77;5.05;;;;;;;7.37;51.61;101333.59;7390124;19;20005;-58
2022/11/28 01:06:10;;;;;;;10.23;4.97;;;;;;;7.48;51.18;101336.06;7391434;19;20002;-58
2022/11/28 01:08:36;;;;;;;11.13;5.10;;;;;;;7.52;50.85;101332.44;7391321;19;20013;-59
2022/11/28 01:11:03;;;;;;;10.15;5.00;;;;;;;7.50;51.00;101326.50;7386955;19;20063;-58
2022/11/28 01:13:29;;;;;;;11.73;5.38;;;;;;;7.53;50.98;101327.78;7389238;19;20364;-58
2022/11/28 01:15:54;;;;;;;13.23;5.30;;;;;;;7.50;50.92;101329.22;7396141;19;20535;-57
2022/11/28 01:18:20;;;;;;;11.20;5.53;;;;;;;7.54;50.84;101334.84;7398449;19;20006;-60
2022/11/28 01:20:46;;;;;;;10.75;5.15;;;;;;;7.50;50.80;101339.31;7396250;19;20585;-58
2022/11/28 01:23:11;;;;;;;11.27;5.40;;;;;;;7.54;50.64;101323.97;7398673;19;19999;-59
2022/11/28 01:25:37;;;;;;;10.18;4.57;;;;;;;7.52;50.46;101305.28;7397674;19;19998;-58
2022/11/28 01:28:03;;;;;;;8.35;4.63;;;;;;;7.45;50.58;101304.13;7398592;19;20006;-56
2022/11/28 01:30:29;;;;;;;11.00;4.82;;;;;;;7.44;50.74;101303.28;7395064;19;20009;-57
2022/11/28 01:32:54;;;;;;;14.57;5.28;;;;;;;7.51;50.68;101302.88;7397965;19;20002;-58
2022/11/28 01:35:20;;;;;;;10.90;4.68;;;;;;;7.54;50.53;101304.97;7397305;19;19998;-58
2022/11/28 01:37:46;;;;;;;12.18;4.80;;;;;;;7.59;50.21;101299.41;7397284;19;20003;-58
2022/11/28 01:40:13;;;;;;;9.20;4.50;;;;;;;7.56;50.22;101294.59;7395971;19;20006;-57
2022/11/28 01:42:39;;;;;;;12.18;5.53;;;;;;;7.53;50.18;101300.63;7396603;19;20027;-58
2022/11/28 01:45:13;;;;;;;10.15;4.57;;;;;;;7.49;50.36;101297.72;7397485;19;20007;-58
2022/11/28 01:47:40;;;;;;;9.75;4.90;;;;;;;7.50;50.35;101295.84;7396888;19;20002;-59
2022/11/28 01:50:06;;;;;;;10.35;4.45;;;;;;;7.38;50.39;101291.75;7395863;19;20006;-60
2022/11/28 01:52:34;;;;;;;10.10;4.97;;;;;;;7.39;50.40;101284.41;7396970;19;20002;-56
2022/11/28 01:55:01;;;;;;;10.05;4.57;;;;;;;7.55;50.17;101291.06;7396831;19;20010;-59
2022/11/28 01:57:28;;;;;;;9.13;4.82;;;;;;;7.55;49.92;101279.41;7394700;19;20321;-58
2022/11/28 02:00:12;;;;;;;11.57;4.88;;;;;;;7.46;49.92;101278.53;7396385;19;20002;-57
2022/11/28 02:02:41;;;;;;;;;;;;;;;7.49;49.80;101259.69;7396796;19;20463;-57
2022/11/28 02:05:07;;;;;;;10.70;4.40;;;;;;;7.56;49.87;101262.00;7394470;19;19929;-58
2022/11/28 02:07:34;;;;;;;10.23;4.22;;;;;;;7.55;49.81;101261.19;7394986;19;20002;-58
2022/11/28 02:10:05;;;;;;;12.10;5.30;;;;;;;7.61;49.71;101267.28;7395392;19;20463;-58
2022/11/28 02:12:42;;;;;;;10.63;4.53;;;;;;;7.50;49.32;101260.53;7396849;19;20010;-58
2022/11/28 02:15:26;;;;;;;14.90;4.78;;;;;;;7.54;49.24;101253.34;7393938;19;19999;-59
2022/11/28 02:18:22;;;;;;;10.48;4.72;;;;;;;7.44;49.15;101238.09;7396465;19;20514;-57
2022/11/28 02:21:15;;;;;;;10.40;4.47;;;;;;;7.55;48.89;101244.91;7394732;19;20003;-60
2022/11/28 02:24:07;;;;;;;8.90;4.50;;;;;;;7.57;49.38;101245.38;7397916;19;20539;-58
2022/11/28 02:26:38;;;;;;;10.10;4.32;;;;;;;7.65;49.07;101243.84;7391694;19;19999;-58
2022/11/28 02:29:13;;;;;;;8.13;4.18;;;;;;;7.59;49.28;101231.50;7396219;19;20036;-59
2022/11/28 02:32:20;;;;;;;7.88;4.32;;;;;;;7.51;49.12;101237.66;7396835;19;20331;-58
2022/11/28 02:35:04;;;;;;;8.80;4.63;;;;;;;7.56;49.06;101234.81;7394929;19;20042;-58
2022/11/28 02:37:37;;;;;;;10.55;4.20;;;;;;;7.64;49.07;101228.66;7395997;19;20022;-58
2022/11/28 02:40:13;;;;;;;9.35;4.38;;;;;;;7.62;48.95;101232.81;7393867;19;20006;-58
2022/11/28 02:42:55;;;;;;;10.45;4.13;;;;;;;7.65;49.05;101222.09;7395613;19;19998;-57
2022/11/28 02:45:34;;;;;;;9.57;4.30;;;;;;;7.64;49.01;101225.94;7392019;19;20026;-58
2022/11/28 02:48:08;;;;;;;9.35;4.65;;;;;;;7.66;48.75;101228.34;7393561;19;20006;-58
2022/11/28 02:50:41;;;;;;;8.30;4.20;;;;;;;7.63;48.70;101232.50;7392854;19;20459;-58
2022/11/28 02:53:12;;;;;;;9.57;4.60;;;;;;;7.64;48.88;101233.28;7396061;19;20028;-58
2022/11/28 02:55:40;;;;;;;10.23;4.60;;;;;;;7.68;48.73;101231.53;7394177;19;20034;-58
2022/11/28 02:58:07;;;;;;;10.73;4.38;;;;;;;7.64;48.92;101220.50;7395791;19;19995;-58
2022/11/28 03:00:36;;;;;;;9.07;4.03;;;;;;;7.62;48.68;101213.78;7393779;19;20016;-58
2022/11/28 03:03:14;;;;;;;9.55;4.50;;;;;;;7.55;48.85;101223.16;7394292;19;20003;-59
2022/11/28 03:06:29;;;;;;;8.68;4.05;;;;;;;7.58;48.51;101221.75;7394756;19;19991;-58
2022/11/28 03:09:22;;;;;;;9.50;4.43;;;;;;;7.60;48.85;101224.97;7390883;19;19999;-59
2022/11/28 03:12:16;;;;;;;9.30;4.15;;;;;;;7.61;48.57;101223.81;7391500;19;19999;-57
2022/11/28 03:14:54;;;;;;;8.33;4.33;;;;;;;7.53;48.75;101219.13;7394527;19;20037;-58
2022/11/28 03:17:31;;;;;;;8.82;4.28;;;;;;;7.62;48.50;101217.28;7391969;19;20863;-57
2022/11/28 03:20:12;;;;;;;9.88;4.20;;;;;;;7.66;48.27;101210.09;7393183;19;20021;-58
2022/11/28 03:22:48;;;;;;;10.75;4.57;;;;;;;7.59;48.31;101217.91;7393665;19;19999;-58
2022/11/28 03:25:26;;;;;;;10.30;4.47;;;;;;;7.57;48.38;101214.72;7390489;19;20002;-58
2022/11/28 03:28:21;;;;;;;9.05;4.53;;;;;;;7.60;48.26;101214.88;7394034;19;20005;-57
2022/11/28 03:31:08;;;;;;;8.98;4.32;;;;;;;7.64;48.24;101201.47;7392702;19;20696;-57
2022/11/28 03:33:40;;;;;;;7.97;3.95;;;;;;;7.63;48.52;101208.03;7393376;19;20453;-57
2022/11/28 03:36:13;;;;;;;10.30;4.47;;;;;;;7.58;48.57;101194.59;7391627;19;20014;-59
2022/11/28 03:38:44;;;;;;;8.75;4.38;;;;;;;7.63;48.37;101202.59;7390714;19;20486;-58
2022/11/28 03:41:15;;;;;;;8.40;4.45;;;;;;;7.72;48.34;101213.50;7392160;19;19998;-57
2022/11/28 03:43:49;;;;;;;8.63;3.97;;;;;;;7.73;48.12;101205.06;7392519;19;20018;-57
2022/11/28 03:46:19;;;;;;;9.73;4.35;;;;;;;7.70;48.11;101200.25;7392930;19;20030;-57
2022/11/28 03:48:49;;;;;;;10.07;4.57;;;;;;;7.76;48.20;101212.59;7391285;19;19995;-58
2022/11/28 03:51:19;;;;;;;9.00;4.00;;;;;;;7.74;47.97;101209.34;7391711;19;19999;-57
2022/11/28 03:53:54;;;;;;;9.82;4.45;;;;;;;7.69;47.96;101211.41;7391624;19;20030;-58
2022/11/28 03:56:49;;;;;;;8.25;4.05;;;;;;;7.72;47.67;101211.59;7391798;19;20515;-58
2022/11/28 03:59:14;;;;;;;9.43;4.25;;;;;;;7.72;47.72;101214.31;7392726;19;20377;-58
2022/11/28 04:01:49;;;;;;;8.13;3.70;;;;;;;7.66;47.87;101217.47;7392517;19;19998;-58
2022/11/28 04:04:35;;;;;;;10.55;4.40;;;;;;;7.70;47.48;101215.75;7389555;19;20363;-58
2022/11/28 04:07:17;;;;;;;8.65;4.40;;;;;;;7.88;47.27;101219.34;7391856;19;19998;-57
2022/11/28 04:10:16;;;;;;;9.38;4.30;;;;;;;7.83;47.50;101217.56;7391322;19;20337;-58
2022/11/28 04:12:44;;;;;;;9.38;4.90;;;;;;;7.79;47.75;101211.94;7392716;19;20007;-57
2022/11/28 04:15:17;;;;;;;9.18;4.47;;;;;;;7.84;47.88;101218.38;7391490;19;20074;-55
2022/11/28 04:17:51;;;;;;;8.40;4.63;;;;;;;7.72;48.29;101216.22;7392357;19;20019;-58
2022/11/28 04:20:28;;;;;;;8.70;4.57;;;;;;;7.73;48.09;101218.63;7391496;19;20017;-58
2022/11/28 04:22:59;;;;;;;9.05;4.13;;;;;;;7.82;48.40;101205.09;7392476;19;20269;-57
2022/11/28 04:25:29;;;;;;;9.10;4.68;;;;;;;7.81;48.18;101213.56;7389397;19;20417;-57
2022/11/28 04:28:03;;;;;;;11.85;4.97;;;;;;;7.64;48.55;101206.13;7392686;19;19998;-56
2022/11/28 04:30:30;;;;;;;10.73;4.95;;;;;;;7.69;48.75;101209.50;7390501;19;19999;-57
2022/11/28 04:33:01;;;;;;;9.52;4.57;;;;;;;7.65;48.73;101216.69;7391903;19;20610;-55
2022/11/28 04:35:39;;;;;;;10.88;5.07;;;;;;;7.76;48.71;101228.06;7391699;19;20030;-56
2022/11/28 04:38:06;;;;;;;9.95;4.55;;;;;;;7.83;48.94;101205.88;7391951;19;20003;-57
2022/11/28 04:40:54;;;;;;;9.20;4.38;;;;;;;7.86;48.99;101207.97;7390562;19;20473;-55
2022/11/28 04:43:26;;;;;;;8.52;3.92;;;;;;;7.82;48.93;101209.72;7391671;19;20005;-55
2022/11/28 04:46:07;;;;;;;9.07;4.35;;;;;;;7.59;49.74;101210.56;7391049;19;20018;-56
2022/11/28 04:48:33;;;;;;;8.80;4.65;;;;;;;7.68;49.51;101204.38;7390282;19;20002;-56
2022/11/28 04:51:24;;;;;;;9.70;4.50;;;;;;;7.69;49.71;101201.34;7389704;19;20002;-56
2022/11/28 04:54:13;;;;;;;9.73;5.00;;;;;;;7.64;49.75;101197.97;7391662;19;20011;-55
2022/11/28 04:56:48;;;;;;;9.63;4.80;;;;;;;7.70;49.61;101204.88;7390447;19;20009;-56
2022/11/28 04:59:14;;;;;;;10.52;4.68;;;;;;;7.63;49.85;101199.88;7392789;19;20003;-57
2022/11/28 05:01:43;;;;;;;9.57;4.68;;;;;;;7.70;49.84;101202.97;7394568;19;20308;-56
2022/11/28 05:04:09;;;;;;;8.77;4.60;;;;;;;7.57;50.17;101199.19;7390705;19;20431;-57
2022/11/28 05:06:35;;;;;;;8.60;4.63;;;;;;;7.65;49.80;101205.81;7391015;19;19998;-58
2022/11/28 05:09:02;;;;;;;11.68;5.22;;;;;;;7.62;50.17;101202.91;7388864;19;20085;-56
2022/11/28 05:11:28;;;;;;;9.75;4.57;;;;;;;7.76;49.80;101201.72;7389384;19;20074;-56
2022/11/28 05:13:54;;;;;;;9.88;4.85;;;;;;;7.59;50.07;101196.19;7391377;19;20500;-55
2022/11/28 05:16:21;;;;;;;10.68;4.82;;;;;;;7.60;50.05;101195.06;7388349;19;20007;-56
2022/11/28 05:18:47;;;;;;;10.15;5.07;;;;;;;7.70;49.80;101199.44;7390893;19;19994;-56
2022/11/28 05:21:13;;;;;;;9.55;4.40;;;;;;;7.63;50.10;101197.16;7387061;19;20454;-55
2022/11/28 05:23:42;;;;;;;9.75;5.10;;;;;;;7.60;50.08;101203.22;7388101;19;19998;-55
2022/11/28 05:26:14;;;;;;;11.30;5.05;;;;;;;7.66;49.79;101201.16;7389925;19;20027;-55
2022/11/28 05:28:43;;;;;;;8.93;5.03;;;;;;;7.63;49.86;101209.94;7390899;19;20495;-56
2022/11/28 05:31:10;;;;;;;8.63;4.93;;;;;;;7.57;50.01;101204.63;7388758;19;20026;-55
2022/11/28 05:33:36;;;;;;;9.73;5.20;;;;;;;7.58;50.25;101194.59;7390624;19;20005;-56
2022/11/28 05:36:07;;;;;;;9.50;4.75;;;;;;;7.50;50.75;101187.19;7389807;19;20534;-55
2022/11/28 05:38:33;;;;;;;10.40;5.10;;;;;;;7.64;50.43;101196.03;7388686;19;20006;-55
2022/11/28 05:41:00;;;;;;;9.10;4.70;;;;;;;7.60;50.19;101192.34;7388198;19;20102;-55
2022/11/28 05:43:27;;;;;;;10.00;5.53;;;;;;;7.49;50.63;101208.09;7388213;19;20003;-56
2022/11/28 05:45:53;;;;;;;10.93;4.72;;;;;;;7.49;50.56;101212.75;7390099;19;20092;-56
2022/11/28 05:48:18;;;;;;;10.35;5.00;;;;;;;7.40;51.08;101213.47;7389807;19;20003;-57
2022/11/28 05:50:44;;;;;;;9.75;4.50;;;;;;;7.48;50.86;101213.84;7386607;19;20005;-57
2022/11/28 05:53:10;;;;;;;10.60;5.00;;;;;;;7.41;50.97;101217.00;7389799;19;20041;-56
2022/11/28 05:55:38;;;;;;;12.05;5.25;;;;;;;7.36;51.19;101223.38;7389149;19;20003;-56
2022/11/28 05:58:04;;;;;;;9.90;4.47;;;;;;;7.41;51.12;101223.25;7389520;19;20062;-56
2022/11/28 06:00:30;;;;;;;10.38;4.97;;;;;;;7.48;51.01;101224.69;7391265;19;20019;-57
2022/11/28 06:02:56;;;;;;;9.73;4.78;;;;;;;7.42;51.22;101219.41;7396741;19;20080;-57
2022/11/28 06:05:22;;;;;;;10.25;4.97;;;;;;;7.38;51.43;101214.91;7393635;19;20363;-57
2022/11/28 06:07:48;;;;;;;11.20;5.15;;;;;;;7.40;51.42;101215.41;7397366;19;20011;-57
2022/11/28 06:10:14;;;;;;;11.23;4.95;;;;;;;7.46;51.10;101216.06;7391934;19;20018;-58
2022/11/28 06:12:40;;;;;;;9.57;4.53;;;;;;;7.37;51.47;101213.31;7395298;19;19994;-57
2022/11/28 06:15:06;;;;;;;9.75;4.50;;;;;;;7.33;51.63;101209.59;7396173;19;20541;-58
2022/11/28 06:17:31;;;;;;;9.38;4.93;;;;;;;7.24;51.68;101214.97;7396895;19;19995;-59
2022/11/28 06:19:57;;;;;;;8.32;4.50;;;;;;;7.30;51.33;101205.59;7396144;19;20014;-58
2022/11/28 06:22:23;;;;;;;9.40;4.60;;;;;;;7.46;51.22;101213.34;7396836;19;19995;-58
2022/11/28 06:24:49;;;;;;;9.25;4.85;;;;;;;7.38;51.21;101212.19;7394938;19;19993;-58
2022/11/28 06:27:14;;;;;;;10.10;4.97;;;;;;;7.40;51.32;101215.41;7396918;19;20345;-58
2022/11/28 06:29:40;;;;;;;9.55;4.88;;;;;;;7.42;51.45;101227.53;7396146;19;20021;-58
2022/11/28 06:32:06;;;;;;;10.45;4.82;;;;;;;7.47;51.29;101231.25;7396174;19;19998;-58
2022/11/28 06:34:31;;;;;;;10.48;5.38;;;;;;;7.40;51.19;101218.91;7396839;19;19994;-58
2022/11/28 06:36:57;;;;;;;12.57;5.65;;;;;;;7.23;51.66;101216.09;7395122;19;20347;-58
2022/11/28 06:39:23;;;;;;;10.68;5.07;;;;;;;7.35;51.55;101224.47;7396439;19;19994;-58
2022/11/28 06:41:49;;;;;;;10.23;5.32;;;;;;;7.30;51.73;101231.94;7393487;19;20479;-57
2022/11/28 06:44:15;;;;;;;11.32;5.40;;;;;;;7.36;51.57;101236.94;7394671;19;20003;-58
2022/11/28 06:46:41;;;;;;;10.00;4.95;;;;;;;7.46;51.64;101235.06;7395003;19;20014;-58
2022/11/28 06:49:11;;;;;;;11.10;5.07;;;;;;;7.39;51.69;101236.31;7395407;19;20355;-58
2022/11/28 06:51:38;;;;;;;12.25;5.65;;;;;;;7.48;51.71;101238.28;7393875;19;20006;-57
2022/11/28 06:54:04;;;;;;;10.57;5.35;;;;;;;7.38;51.80;101248.31;7395174;19;20383;-58
2022/11/28 06:56:31;;;;;;;10.85;5.13;;;;;;;7.40;51.95;101237.91;7395462;19;20005;-58
2022/11/28 06:58:58;;;;;;;9.70;4.88;;;;;;;7.54;51.60;101237.06;7394668;19;20447;-58
2022/11/28 07:01:29;;;;;;;11.10;5.00;;;;;;;7.61;51.50;101226.53;7393152;19;20006;-58
2022/11/28 07:03:55;;;;;;;10.60;5.22;;;;;;;7.56;51.75;101234.81;7395143;19;20006;-57
2022/11/28 07:06:23;;;;;;;10.63;5.25;;;;;;;7.65;51.43;101227.53;7394544;19;20395;-57
2022/11/28 07:08:49;;;;;;;10.68;5.63;;;;;;;7.64;51.52;101225.13;7395089;19;20006;-57
2022/11/28 07:11:16;;;;;;;12.68;5.70;;;;;;;7.67;51.45;101222.59;7392457;19;20471;-56
2022/11/28 07:13:44;;;;;;;12.05;6.18;;;;;;;7.68;51.17;101232.34;7394046;19;20074;-57
2022/11/28 07:16:24;;;;;;;12.55;5.90;;;;;;;7.58;51.56;101236.13;7394152;19;20016;-56
2022/11/28 07:18:51;;;;;;;11.93;6.20;;;;;;;7.64;51.34;101236.78;7394917;19;19999;-57
2022/11/28 07:21:17;;;;;;;11.30;5.95;;;;;;;7.72;51.29;101237.97;7392920;19;20336;-57
2022/11/28 07:23:44;;;;;;;12.13;6.22;;;;;;;7.55;51.69;101242.19;7394740;19;20009;-57
2022/11/28 07:26:11;;;;;;;12.68;6.25;;;;;;;7.47;52.13;101244.84;7393984;19;20003;-57
2022/11/28 07:28:38;;;;;;;12.23;6.15;;;;;;;7.60;51.81;101239.34;7394509;19;20002;-56
2022/11/28 07:31:12;;;;;;;11.55;6.03;;;;;;;7.53;51.90;101249.03;7392740;19;20031;-58
2022/11/28 07:33:40;;;;;;;10.95;6.10;;;;;;;7.47;51.79;101244.84;7394057;19;20002;-58
2022/11/28 07:36:10;;;;;;;10.65;5.43;;;;;;;7.38;52.25;101248.31;7393109;19;20343;-57
2022/11/28 07:38:36;;;;;;;10.90;5.88;;;;;;;7.41;52.16;101247.69;7394031;19;20002;-58
2022/11/28 07:41:03;;;;;;;10.88;5.72;;;;;;;7.35;52.01;101256.25;7392337;19;20062;-57
2022/11/28 07:43:29;;;;;;;11.55;5.68;;;;;;;7.38;52.21;101259.16;7393172;19;20486;-56
2022/11/28 07:45:54;;;;;;;12.13;5.97;;;;;;;7.32;52.15;101252.25;7391710;19;20031;-56
2022/11/28 07:48:21;;;;;;;12.45;5.60;;;;;;;7.25;52.15;101260.03;7393599;19;20003;-57
2022/11/28 07:50:46;;;;;;;11.80;5.45;;;;;;;7.28;52.41;101262.13;7392160;19;20372;-58
2022/11/28 07:53:12;;;;;;;11.50;5.68;;;;;;;7.31;52.32;101266.94;7393141;19;19998;-57
2022/11/28 07:55:38;;;;;;;11.45;5.55;;;;;;;7.36;52.09;101258.69;7392577;19;20353;-57
2022/11/28 07:58:04;;;;;;;11.75;5.60;;;;;;;7.37;52.30;101265.69;7393120;19;20346;-57
2022/11/28 08:00:31;;;;;;;11.38;5.95;;;;;;;7.36;52.52;101260.56;7392970;19;20495;-57
2022/11/28 08:02:57;;;;;;;12.05;6.10;;;;;;;7.44;52.13;101269.91;7393110;19;20049;-57
2022/11/28 08:05:22;;;;;;;15.35;8.30;;;;;;;7.44;52.16;101267.97;7391084;19;20012;-56
2022/11/28 08:07:49;;;;;;;15.68;6.82;;;;;;;7.49;52.21;101275.22;7393536;19;20108;-58
2022/11/28 08:10:16;;;;;;;16.67;9.07;;;;;;;7.30;52.69;101270.75;7391642;19;20070;-57
2022/11/28 08:12:42;;;;;;;11.40;6.22;;;;;;;7.29;52.77;101277.28;7393367;19;19998;-57
2022/11/28 08:15:08;;;;;;;12.27;6.60;;;;;;;7.32;52.66;101279.41;7391890;19;20006;-58
2022/11/28 08:17:34;;;;;;;13.38;5.97;;;;;;;7.30;52.92;101264.53;7392681;19;20032;-58
2022/11/28 08:20:00;;;;;;;12.57;6.93;;;;;;;7.21;53.11;101275.31;7390344;19;20018;-58
2022/11/28 08:22:26;;;;;;;11.32;5.97;;;;;;;7.34;52.86;101266.31;7392895;19;20018;-57
2022/11/28 08:24:52;;;;;;;11.27;5.63;;;;;;;7.34;52.74;101268.22;7391395;19;19999;-58
2022/11/28 08:27:18;;;;;;;11.38;5.97;;;;;;;7.26;53.02;101266.25;7393205;19;20486;-57
2022/11/28 08:29:43;;;;;;;15.00;6.25;;;;;;;7.34;52.61;101271.72;7392189;19;20006;-57
2022/11/28 08:32:09;;;;;;;12.82;6.28;;;;;;;7.41;52.40;101274.84;7392782;19;19998;-57
2022/11/28 08:34:34;;;;;;;10.50;5.70;;;;;;;7.29;52.76;101281.94;7391922;19;19994;-58
2022/11/28 08:37:00;;;;;;;13.63;6.78;;;;;;;7.25;52.81;101276.31;7389389;19;20035;-58
2022/11/28 08:39:26;;;;;;;12.88;7.82;;;;;;;7.34;52.47;101269.03;7389976;19;20003;-57
2022/11/28 08:41:55;;;;;;;12.25;6.30;;;;;;;7.40;52.66;101270.50;7391795;19;20026;-57
2022/11/28 08:44:22;;;;;;;13.43;8.02;;;;;;;7.40;52.75;101273.22;7391240;19;20003;-57
2022/11/28 08:46:47;;;;;;;12.05;6.63;;;;;;;7.37;52.68;101271.13;7391231;19;20491;-58
2022/11/28 08:49:13;;;;;;;12.00;6.00;;;;;;;7.38;52.34;101267.31;7392393;19;20006;-58
2022/11/28 08:51:39;;;;;;;11.43;6.70;;;;;;;7.26;52.89;101272.47;7388413;19;20003;-59
2022/11/28 08:54:05;;;;;;;12.35;6.05;;;;;;;7.27;52.85;101276.78;7389367;19;19995;-58
2022/11/28 08:56:30;;;;;;;13.93;6.43;;;;;;;7.32;52.87;101268.53;7391022;19;19999;-58
2022/11/28 08:58:56;;;;;;;11.93;6.65;;;;;;;7.38;52.68;101271.94;7390863;19;20389;-58
2022/11/28 09:01:24;;;;;;;12.75;5.95;;;;;;;7.31;52.80;101277.81;7388524;19;20069;-59
2022/11/28 09:03:51;;;;;;;12.52;6.22;;;;;;;7.43;52.47;101263.69;7390523;19;20013;-58
2022/11/28 09:06:17;;;;;;;14.02;6.47;;;;;;;7.30;52.73;101269.97;7390985;19;19999;-58
2022/11/28 09:08:43;;;;;;;13.32;6.68;;;;;;;7.34;52.70;101271.72;7391189;19;20036;-58
2022/11/28 09:11:12;;;;;;;10.90;6.22;;;;;;;7.39;52.60;101268.09;7388678;19;20333;-58
2022/11/28 09:13:38;;;;;;;12.48;6.40;;;;;;;7.40;52.61;101275.94;7389483;19;20027;-59
2022/11/28 09:16:04;;;;;;;11.35;6.28;;;;;;;7.49;52.61;101277.94;7390925;19;20447;-59
2022/11/28 09:18:30;;;;;;;12.85;6.13;;;;;;;7.49;52.49;101272.50;7389440;19;20427;-59
2022/11/28 09:21:01;;;;;;;11.90;6.22;;;;;;;7.44;52.62;101281.56;7390360;19;20003;-58
2022/11/28 09:23:28;;;;;;;10.98;5.88;;;;;;;7.47;52.50;101280.94;7390159;19;20014;-58
2022/11/28 09:25:54;;;;;;;10.70;5.63;;;;;;;7.42;52.54;101276.44;7389548;19;20006;-58
2022/11/28 09:28:20;;;;;;;10.55;5.50;;;;;;;7.50;52.60;101276.81;7390018;19;20487;-58
2022/11/28 09:30:45;;;;;;;11.65;5.97;;;;;;;7.53;52.50;101276.19;7388455;19;20002;-58
2022/11/28 09:33:12;;;;;;;12.45;6.18;;;;;;;7.58;52.08;101265.22;7390610;19;20030;-56
2022/11/28 09:35:40;;;;;;;10.77;5.68;;;;;;;7.48;52.45;101273.59;7392697;19;20003;-57
2022/11/28 09:38:06;;;;;;;12.18;6.20;;;;;;;7.47;52.74;101272.78;7398373;19;20016;-58
2022/11/28 09:40:42;;;;;;;17.42;10.30;;;;;;;7.61;52.21;101275.44;7396754;19;20006;-57
2022/11/28 09:43:35;;;;;;;15.30;9.25;;;;;;;7.57;52.55;101277.19;7398815;19;20066;-58
2022/11/28 09:46:08;;;;;;;18.63;13.67;;;;;;;7.62;52.42;101273.56;7398337;19;20058;-58
2022/11/28 09:48:38;;;;;;;17.17;9.82;;;;;;;7.47;52.68;101277.44;7397754;19;20013;-58
2022/11/28 09:51:42;;;;;;;12.55;6.65;;;;;;;7.47;52.71;101275.50;7394902;19;20481;-58
2022/11/28 09:54:26;;;;;;;15.57;8.25;;;;;;;7.51;52.71;101272.97;7398291;19;20044;-58
2022/11/28 09:56:52;;;;;;;;;;;;;;;7.55;52.46;101274.78;7397747;19;20050;-58
2022/11/28 09:59:29;;;;;;;17.10;6.25;;;;;;;7.53;52.64;101277.00;7397395;19;19922;-57
2022/11/28 10:02:32;;;;;;;10.95;5.75;;;;;;;7.60;52.42;101276.56;7397139;19;20014;-57
2022/11/28 10:05:10;;;;;;;11.45;6.18;;;;;;;7.58;52.47;101268.72;7394079;19;20003;-58
2022/11/28 10:07:54;;;;;;;13.43;6.18;;;;;;;7.60;52.60;101263.00;7397566;19;20006;-57
2022/11/28 10:10:37;;;;;;;;;;;;;;;7.60;52.64;101268.44;7396204;19;20010;-57
2022/11/28 10:13:22;;;;;;;12.20;6.20;;;;;;;7.72;52.37;101265.94;7395982;19;19922;-57
2022/11/28 10:16:17;;;;;;;12.48;6.18;;;;;;;7.72;52.13;101260.50;7396464;19;19998;-57
2022/11/28 10:18:51;;;;;;;12.80;6.78;;;;;;;7.74;52.12;101262.91;7395777;19;19994;-57
2022/11/28 10:21:30;;;;;;;12.88;7.07;;;;;;;7.72;51.92;101265.94;7393083;19;20307;-58
2022/11/28 10:24:00;;;;;;;11.75;6.03;;;;;;;7.73;52.37;101264.84;7394413;19;20530;-58
2022/11/28 10:26:36;;;;;;;11.65;6.15;;;;;;;7.73;52.42;101262.13;7395632;19;20352;-57
2022/11/28 10:29:17;;;;;;;12.80;6.10;;;;;;;7.71;52.34;101258.91;7397621;19;20339;-58
2022/11/28 10:31:45;;;;;;;12.85;6.13;;;;;;;7.70;52.65;101272.81;7393751;19;20030;-59
2022/11/28 10:34:29;;;;;;;13.25;6.30;;;;;;;7.73;52.50;101264.84;7396752;19;20029;-58
2022/11/28 10:37:20;;;;;;;12.05;6.85;;;;;;;7.71;52.43;101263.53;7396112;19;20006;-57
2022/11/28 10:39:47;;;;;;;12.20;6.20;;;;;;;7.75;52.44;101259.88;7394854;19;20471;-58
2022/11/28 10:42:27;;;;;;;12.00;6.40;;;;;;;7.75;52.58;101267.25;7395757;19;19998;-58
2022/11/28 10:45:12;;;;;;;12.25;6.20;;;;;;;7.84;52.26;101264.56;7391587;19;20079;-57
2022/11/28 10:47:41;;;;;;;15.05;7.03;;;;;;;7.81;52.34;101265.19;7392995;19;20019;-57
2022/11/28 10:50:24;;;;;;;11.05;6.15;;;;;;;7.69;52.59;101263.84;7394679;19;20010;-57
2022/11/28 10:53:05;;;;;;;14.17;7.43;;;;;;;7.70;52.55;101270.09;7395327;19;20006;-57
2022/11/28 10:55:49;;;;;;;13.50;6.07;;;;;;;7.79;52.36;101266.28;7394997;19;20271;-57
2022/11/28 10:58:26;;;;;;;11.43;6.90;;;;;;;7.86;52.43;101271.28;7395266;19;20003;-58
2022/11/28 11:00:54;;;;;;;14.75;7.20;;;;;;;7.88;52.59;101274.50;7393239;19;19998;-57
2022/11/28 11:03:26;;;;;;;12.90;6.60;;;;;;;7.85;52.54;101263.47;7394660;19;20691;-58
2022/11/28 11:05:52;;;;;;;12.90;7.50;;;;;;;7.81;52.52;101267.91;7395188;19;20013;-57
2022/11/28 11:08:35;;;;;;;14.20;7.13;;;;;;;7.83;52.35;101265.66;7394939;19;20003;-58
2022/11/28 11:11:44;;;;;;;15.07;7.18;;;;;;;7.89;52.52;101264.44;7390940;19;20673;-57
2022/11/28 11:14:10;;;;;;;15.63;7.20;;;;;;;7.89;52.27;101264.44;7394906;19;19991;-57
2022/11/28 11:16:45;;;;;;;14.07;7.72;;;;;;;7.89;52.47;101267.16;7393971;19;20154;-57
2022/11/28 11:19:23;;;;;;;12.75;6.63;;;;;;;7.82;52.54;101262.16;7394795;19;20006;-57
2022/11/28 11:22:04;;;;;;;14.32;6.38;;;;;;;7.86;52.48;101254.19;7395074;19;20006;-57
2022/11/28 11:24:30;;;;;;;12.50;6.35;;;;;;;7.94;52.12;101265.09;7393957;19;20094;-57
2022/11/28 11:27:20;;;;;;;14.02;7.05;;;;;;;7.97;51.95;101266.41;7391792;19;20083;-58
2022/11/28 11:29:46;;;;;;;13.35;6.47;;;;;;;7.90;52.10;101263.34;7392427;19;20013;-57
2022/11/28 11:32:22;;;;;;;13.63;6.72;;;;;;;7.91;52.37;101268.47;7394208;19;19998;-58
2022/11/28 11:34:49;;;;;;;15.43;7.28;;;;;;;7.87;52.34;101266.66;7393365;19;20038;-58
2022/11/28 11:37:36;;;;;;;13.07;6.53;;;;;;;7.89;52.50;101257.06;7394305;19;19997;-57
2022/11/28 11:40:19;;;;;;;13.57;6.60;;;;;;;7.95;52.22;101253.13;7393624;19;20030;-58
2022/11/28 11:42:57;;;;;;;12.68;6.68;;;;;;;7.99;52.25;101258.72;7393760;19;20007;-58
2022/11/28 11:45:32;;;;;;;12.70;6.50;;;;;;;8.03;52.23;101254.28;7389506;19;20076;-58
2022/11/28 11:47:58;;;;;;;13.07;6.53;;;;;;;8.04;52.22;101257.81;7391675;19;20002;-58
2022/11/28 11:50:27;;;;;;;12.95;7.05;;;;;;;8.05;52.02;101254.78;7392703;19;19991;-59